sensor_id;sensor_type;location;lat;lon;timestamp;P1;durP1;ratioP1;P2;durP2;ratioP2
6852;SDS011;3465;42.144;24.722;2022-12-17T00:02:19;158.13;;;37.93;;
6852;SDS011;3465;42.144;24.722;2022-12-17T00:05:03;149.60;;;36.67;;
6852;SDS011;3465;42.144;24.722;2022-12-17T00:07:54;152.93;;;39.50;;
6852;SDS011;3465;42.144;24.722;2022-12-17T00:10:39;160.83;;;38.80;;
6852;SDS011;3465;42.144;24.722;2022-12-17T00:13:23;174.80;;;41.60;;
6852;SDS011;3465;42.144;24.722;2022-12-17T00:16:07;186.67;;;40.60;;
6852;SDS011;3465;42.144;24.722;2022-12-17T00:18:51;176.67;;;41.83;;
6852;SDS011;3465;42.144;24.722;2022-12-17T00:21:35;147.60;;;40.17;;
6852;SDS011;3465;42.144;24.722;2022-12-17T00:24:19;153.40;;;41.47;;
6852;SDS011;3465;42.144;24.722;2022-12-17T00:27:03;149.20;;;41.43;;
6852;SDS011;3465;42.144;24.722;2022-12-17T00:29:47;168.23;;;41.23;;
6852;SDS011;3465;42.144;24.722;2022-12-17T00:32:31;151.17;;;42.00;;
6852;SDS011;3465;42.144;24.722;2022-12-17T00:35:14;147.40;;;39.47;;
6852;SDS011;3465;42.144;24.722;2022-12-17T00:37:59;139.70;;;37.47;;
6852;SDS011;3465;42.144;24.722;2022-12-17T00:40:43;151.40;;;40.23;;
6852;SDS011;3465;42.144;24.722;2022-12-17T00:43:27;152.80;;;37.87;;
6852;SDS011;3465;42.144;24.722;2022-12-17T00:46:11;140.17;;;38.70;;
6852;SDS011;3465;42.144;24.722;2022-12-17T00:48:55;169.93;;;38.17;;
6852;SDS011;3465;42.144;24.722;2022-12-17T00:51:39;150.83;;;37.67;;
6852;SDS011;3465;42.144;24.722;2022-12-17T00:54:23;152.93;;;37.47;;
6852;SDS011;3465;42.144;24.722;2022-12-17T00:57:07;135.93;;;36.20;;
6852;SDS011;3465;42.144;24.722;2022-12-17T00:59:51;135.30;;;35.10;;
6852;SDS011;3465;42.144;24.722;2022-12-17T01:02:35;127.47;;;34.10;;
6852;SDS011;3465;42.144;24.722;2022-12-17T01:05:19;143.10;;;33.80;;
6852;SDS011;3465;42.144;24.722;2022-12-17T01:08:10;126.27;;;33.00;;
6852;SDS011;3465;42.144;24.722;2022-12-17T01:10:59;147.60;;;35.03;;
6852;SDS011;3465;42.144;24.722;2022-12-17T01:13:47;137.17;;;35.07;;
6852;SDS011;3465;42.144;24.722;2022-12-17T01:16:31;151.80;;;33.97;;
6852;SDS011;3465;42.144;24.722;2022-12-17T01:19:16;140.63;;;34.20;;
6852;SDS011;3465;42.144;24.722;2022-12-17T01:22:00;133.63;;;33.93;;
6852;SDS011;3465;42.144;24.722;2022-12-17T01:24:44;129.10;;;33.13;;
6852;SDS011;3465;42.144;24.722;2022-12-17T01:27:28;145.33;;;35.10;;
6852;SDS011;3465;42.144;24.722;2022-12-17T01:30:11;146.03;;;33.73;;
6852;SDS011;3465;42.144;24.722;2022-12-17T01:32:59;134.33;;;34.00;;
6852;SDS011;3465;42.144;24.722;2022-12-17T01:35:48;147.67;;;33.87;;
6852;SDS011;3465;42.144;24.722;2022-12-17T01:38:32;142.60;;;33.43;;
6852;SDS011;3465;42.144;24.722;2022-12-17T01:41:17;159.73;;;35.10;;
6852;SDS011;3465;42.144;24.722;2022-12-17T01:48:10;149.17;;;33.03;;
6852;SDS011;3465;42.144;24.722;2022-12-17T01:50:46;142.80;;;33.13;;
6852;SDS011;3465;42.144;24.722;2022-12-17T01:53:37;139.97;;;32.90;;
6852;SDS011;3465;42.144;24.722;2022-12-17T01:56:25;138.70;;;33.60;;
6852;SDS011;3465;42.144;24.722;2022-12-17T01:59:09;146.90;;;30.53;;
6852;SDS011;3465;42.144;24.722;2022-12-17T02:01:55;130.50;;;31.80;;
6852;SDS011;3465;42.144;24.722;2022-12-17T02:04:39;131.77;;;29.77;;
6852;SDS011;3465;42.144;24.722;2022-12-17T02:13:58;116.23;;;27.63;;
6852;SDS011;3465;42.144;24.722;2022-12-17T02:16:50;130.23;;;28.00;;
6852;SDS011;3465;42.144;24.722;2022-12-17T02:20:41;116.13;;;26.80;;
6852;SDS011;3465;42.144;24.722;2022-12-17T02:28:57;114.73;;;26.20;;
6852;SDS011;3465;42.144;24.722;2022-12-17T02:31:44;108.80;;;26.67;;
6852;SDS011;3465;42.144;24.722;2022-12-17T02:34:30;139.37;;;29.30;;
6852;SDS011;3465;42.144;24.722;2022-12-17T02:37:14;140.00;;;28.70;;
6852;SDS011;3465;42.144;24.722;2022-12-17T02:39:58;141.47;;;28.73;;
6852;SDS011;3465;42.144;24.722;2022-12-17T02:42:42;130.70;;;29.13;;
6852;SDS011;3465;42.144;24.722;2022-12-17T02:45:27;132.47;;;28.23;;
6852;SDS011;3465;42.144;24.722;2022-12-17T02:48:11;119.40;;;27.63;;
6852;SDS011;3465;42.144;24.722;2022-12-17T02:50:55;134.00;;;28.97;;
6852;SDS011;3465;42.144;24.722;2022-12-17T02:53:44;117.97;;;27.47;;
6852;SDS011;3465;42.144;24.722;2022-12-17T02:56:33;114.40;;;26.57;;
6852;SDS011;3465;42.144;24.722;2022-12-17T02:59:17;121.73;;;27.00;;
6852;SDS011;3465;42.144;24.722;2022-12-17T03:02:01;123.50;;;25.80;;
6852;SDS011;3465;42.144;24.722;2022-12-17T03:04:45;101.50;;;24.80;;
6852;SDS011;3465;42.144;24.722;2022-12-17T03:07:29;117.67;;;26.13;;
6852;SDS011;3465;42.144;24.722;2022-12-17T03:10:13;111.27;;;27.03;;
6852;SDS011;3465;42.144;24.722;2022-12-17T03:12:57;98.97;;;24.23;;
6852;SDS011;3465;42.144;24.722;2022-12-17T03:15:41;97.63;;;23.17;;
6852;SDS011;3465;42.144;24.722;2022-12-17T03:18:25;108.47;;;24.60;;
6852;SDS011;3465;42.144;24.722;2022-12-17T03:21:09;106.47;;;23.60;;
6852;SDS011;3465;42.144;24.722;2022-12-17T03:23:53;87.07;;;22.03;;
6852;SDS011;3465;42.144;24.722;2022-12-17T03:26:43;82.53;;;19.43;;
6852;SDS011;3465;42.144;24.722;2022-12-17T03:29:27;79.70;;;21.07;;
6852;SDS011;3465;42.144;24.722;2022-12-17T03:32:11;79.73;;;22.40;;
6852;SDS011;3465;42.144;24.722;2022-12-17T03:34:55;75.03;;;20.03;;
6852;SDS011;3465;42.144;24.722;2022-12-17T03:37:39;62.10;;;18.53;;
6852;SDS011;3465;42.144;24.722;2022-12-17T03:40:26;69.37;;;20.43;;
6852;SDS011;3465;42.144;24.722;2022-12-17T03:43:10;90.07;;;20.17;;
6852;SDS011;3465;42.144;24.722;2022-12-17T03:45:54;87.07;;;21.07;;
6852;SDS011;3465;42.144;24.722;2022-12-17T03:48:38;69.67;;;19.33;;
6852;SDS011;3465;42.144;24.722;2022-12-17T03:51:22;65.60;;;19.97;;
6852;SDS011;3465;42.144;24.722;2022-12-17T03:54:06;68.87;;;20.47;;
6852;SDS011;3465;42.144;24.722;2022-12-17T03:56:50;62.17;;;20.93;;
6852;SDS011;3465;42.144;24.722;2022-12-17T03:59:34;67.83;;;20.33;;
6852;SDS011;3465;42.144;24.722;2022-12-17T04:02:31;78.77;;;21.43;;
6852;SDS011;3465;42.144;24.722;2022-12-17T04:05:15;73.40;;;22.37;;
6852;SDS011;3465;42.144;24.722;2022-12-17T04:07:59;74.07;;;21.13;;
6852;SDS011;3465;42.144;24.722;2022-12-17T04:10:43;83.83;;;22.40;;
6852;SDS011;3465;42.144;24.722;2022-12-17T04:13:27;69.80;;;20.50;;
6852;SDS011;3465;42.144;24.722;2022-12-17T04:16:11;64.10;;;20.37;;
6852;SDS011;3465;42.144;24.722;2022-12-17T04:18:55;77.60;;;22.23;;
6852;SDS011;3465;42.144;24.722;2022-12-17T04:21:39;74.10;;;21.53;;
6852;SDS011;3465;42.144;24.722;2022-12-17T04:24:23;68.80;;;20.10;;
6852;SDS011;3465;42.144;24.722;2022-12-17T04:27:07;84.70;;;29.67;;
6852;SDS011;3465;42.144;24.722;2022-12-17T04:29:51;73.17;;;24.93;;
6852;SDS011;3465;42.144;24.722;2022-12-17T04:32:35;77.87;;;22.30;;
6852;SDS011;3465;42.144;24.722;2022-12-17T04:35:19;77.30;;;25.87;;
6852;SDS011;3465;42.144;24.722;2022-12-17T04:38:03;92.33;;;24.47;;
6852;SDS011;3465;42.144;24.722;2022-12-17T04:40:47;83.57;;;23.97;;
6852;SDS011;3465;42.144;24.722;2022-12-17T04:43:31;84.07;;;23.07;;
6852;SDS011;3465;42.144;24.722;2022-12-17T04:46:15;98.73;;;26.00;;
6852;SDS011;3465;42.144;24.722;2022-12-17T04:48:59;94.43;;;26.70;;
6852;SDS011;3465;42.144;24.722;2022-12-17T04:51:43;87.30;;;24.13;;
6852;SDS011;3465;42.144;24.722;2022-12-17T04:54:27;88.90;;;24.50;;
6852;SDS011;3465;42.144;24.722;2022-12-17T04:57:11;89.13;;;25.77;;
6852;SDS011;3465;42.144;24.722;2022-12-17T04:59:55;80.43;;;23.03;;
6852;SDS011;3465;42.144;24.722;2022-12-17T05:02:39;81.47;;;24.07;;
6852;SDS011;3465;42.144;24.722;2022-12-17T05:05:23;80.50;;;24.03;;
6852;SDS011;3465;42.144;24.722;2022-12-17T05:08:07;79.03;;;23.83;;
6852;SDS011;3465;42.144;24.722;2022-12-17T05:10:51;67.43;;;22.63;;
6852;SDS011;3465;42.144;24.722;2022-12-17T05:13:35;63.67;;;21.23;;
6852;SDS011;3465;42.144;24.722;2022-12-17T05:16:38;77.30;;;23.80;;
6852;SDS011;3465;42.144;24.722;2022-12-17T05:19:22;73.20;;;23.47;;
6852;SDS011;3465;42.144;24.722;2022-12-17T05:22:06;78.93;;;25.53;;
6852;SDS011;3465;42.144;24.722;2022-12-17T05:24:50;76.00;;;24.20;;
6852;SDS011;3465;42.144;24.722;2022-12-17T05:27:34;66.90;;;23.97;;
6852;SDS011;3465;42.144;24.722;2022-12-17T05:30:18;65.63;;;23.90;;
6852;SDS011;3465;42.144;24.722;2022-12-17T05:33:02;62.20;;;23.93;;
6852;SDS011;3465;42.144;24.722;2022-12-17T05:35:46;68.17;;;24.77;;
6852;SDS011;3465;42.144;24.722;2022-12-17T05:38:31;58.37;;;22.87;;
6852;SDS011;3465;42.144;24.722;2022-12-17T05:41:15;60.30;;;22.53;;
6852;SDS011;3465;42.144;24.722;2022-12-17T05:44:02;54.50;;;22.07;;
6852;SDS011;3465;42.144;24.722;2022-12-17T05:46:46;56.27;;;21.73;;
6852;SDS011;3465;42.144;24.722;2022-12-17T05:49:30;61.93;;;23.30;;
6852;SDS011;3465;42.144;24.722;2022-12-17T05:52:14;57.43;;;21.73;;
6852;SDS011;3465;42.144;24.722;2022-12-17T05:54:58;58.77;;;22.97;;
6852;SDS011;3465;42.144;24.722;2022-12-17T05:57:41;58.37;;;22.20;;
6852;SDS011;3465;42.144;24.722;2022-12-17T06:00:25;54.03;;;19.73;;
6852;SDS011;3465;42.144;24.722;2022-12-17T06:03:09;63.40;;;23.87;;
6852;SDS011;3465;42.144;24.722;2022-12-17T06:05:54;59.10;;;22.40;;
6852;SDS011;3465;42.144;24.722;2022-12-17T06:08:38;66.27;;;24.13;;
6852;SDS011;3465;42.144;24.722;2022-12-17T06:11:22;64.47;;;23.93;;
6852;SDS011;3465;42.144;24.722;2022-12-17T06:14:06;65.73;;;23.03;;
6852;SDS011;3465;42.144;24.722;2022-12-17T06:16:50;67.23;;;24.67;;
6852;SDS011;3465;42.144;24.722;2022-12-17T06:19:34;62.70;;;22.77;;
6852;SDS011;3465;42.144;24.722;2022-12-17T06:22:18;70.03;;;24.00;;
6852;SDS011;3465;42.144;24.722;2022-12-17T06:25:02;65.90;;;24.37;;
6852;SDS011;3465;42.144;24.722;2022-12-17T06:27:46;56.43;;;25.23;;
6852;SDS011;3465;42.144;24.722;2022-12-17T06:30:30;67.00;;;29.13;;
6852;SDS011;3465;42.144;24.722;2022-12-17T06:33:14;292.23;;;121.83;;
6852;SDS011;3465;42.144;24.722;2022-12-17T06:35:58;95.83;;;39.03;;
6852;SDS011;3465;42.144;24.722;2022-12-17T06:38:42;111.07;;;43.90;;
6852;SDS011;3465;42.144;24.722;2022-12-17T06:41:26;65.00;;;26.67;;
6852;SDS011;3465;42.144;24.722;2022-12-17T06:44:10;60.67;;;24.67;;
6852;SDS011;3465;42.144;24.722;2022-12-17T06:46:54;63.63;;;25.00;;
6852;SDS011;3465;42.144;24.722;2022-12-17T06:49:38;61.93;;;24.73;;
6852;SDS011;3465;42.144;24.722;2022-12-17T06:52:23;67.40;;;25.20;;
6852;SDS011;3465;42.144;24.722;2022-12-17T06:55:07;60.83;;;24.20;;
6852;SDS011;3465;42.144;24.722;2022-12-17T06:58:00;66.43;;;24.57;;
6852;SDS011;3465;42.144;24.722;2022-12-17T07:00:44;65.57;;;25.33;;
6852;SDS011;3465;42.144;24.722;2022-12-17T07:03:29;63.23;;;25.33;;
6852;SDS011;3465;42.144;24.722;2022-12-17T07:06:13;64.10;;;26.43;;
6852;SDS011;3465;42.144;24.722;2022-12-17T07:08:57;73.03;;;28.33;;
6852;SDS011;3465;42.144;24.722;2022-12-17T07:11:41;81.30;;;30.23;;
6852;SDS011;3465;42.144;24.722;2022-12-17T07:14:25;66.20;;;25.63;;
6852;SDS011;3465;42.144;24.722;2022-12-17T07:17:09;72.43;;;27.57;;
6852;SDS011;3465;42.144;24.722;2022-12-17T07:19:53;72.27;;;25.67;;
6852;SDS011;3465;42.144;24.722;2022-12-17T07:22:37;60.40;;;23.17;;
6852;SDS011;3465;42.144;24.722;2022-12-17T07:25:21;63.10;;;25.00;;
6852;SDS011;3465;42.144;24.722;2022-12-17T07:28:05;67.17;;;23.93;;
6852;SDS011;3465;42.144;24.722;2022-12-17T07:30:49;70.77;;;23.83;;
6852;SDS011;3465;42.144;24.722;2022-12-17T07:33:33;68.53;;;26.13;;
6852;SDS011;3465;42.144;24.722;2022-12-17T07:36:17;67.50;;;23.93;;
6852;SDS011;3465;42.144;24.722;2022-12-17T07:39:01;75.07;;;29.33;;
6852;SDS011;3465;42.144;24.722;2022-12-17T07:41:45;77.63;;;25.93;;
6852;SDS011;3465;42.144;24.722;2022-12-17T07:44:29;74.93;;;26.63;;
6852;SDS011;3465;42.144;24.722;2022-12-17T07:47:13;81.67;;;26.03;;
6852;SDS011;3465;42.144;24.722;2022-12-17T07:49:57;76.83;;;25.73;;
6852;SDS011;3465;42.144;24.722;2022-12-17T07:52:41;83.73;;;27.27;;
6852;SDS011;3465;42.144;24.722;2022-12-17T07:55:25;73.73;;;24.73;;
6852;SDS011;3465;42.144;24.722;2022-12-17T07:58:09;75.33;;;25.23;;
6852;SDS011;3465;42.144;24.722;2022-12-17T08:00:54;66.97;;;23.33;;
6852;SDS011;3465;42.144;24.722;2022-12-17T08:03:41;71.17;;;23.80;;
6852;SDS011;3465;42.144;24.722;2022-12-17T08:06:25;62.00;;;22.00;;
6852;SDS011;3465;42.144;24.722;2022-12-17T08:09:08;68.87;;;23.83;;
6852;SDS011;3465;42.144;24.722;2022-12-17T08:11:53;62.47;;;21.87;;
6852;SDS011;3465;42.144;24.722;2022-12-17T08:14:36;65.07;;;20.77;;
6852;SDS011;3465;42.144;24.722;2022-12-17T08:17:20;66.27;;;20.97;;
6852;SDS011;3465;42.144;24.722;2022-12-17T08:20:04;69.13;;;21.97;;
6852;SDS011;3465;42.144;24.722;2022-12-17T08:22:49;58.83;;;20.90;;
6852;SDS011;3465;42.144;24.722;2022-12-17T08:25:33;55.87;;;21.20;;
6852;SDS011;3465;42.144;24.722;2022-12-17T08:28:17;65.63;;;21.37;;
6852;SDS011;3465;42.144;24.722;2022-12-17T08:31:01;52.87;;;19.50;;
6852;SDS011;3465;42.144;24.722;2022-12-17T08:33:45;49.57;;;20.13;;
6852;SDS011;3465;42.144;24.722;2022-12-17T08:36:29;53.83;;;20.70;;
6852;SDS011;3465;42.144;24.722;2022-12-17T08:39:13;52.20;;;21.00;;
6852;SDS011;3465;42.144;24.722;2022-12-17T08:41:57;55.47;;;21.60;;
6852;SDS011;3465;42.144;24.722;2022-12-17T08:44:41;52.10;;;21.17;;
6852;SDS011;3465;42.144;24.722;2022-12-17T08:47:25;53.97;;;20.30;;
6852;SDS011;3465;42.144;24.722;2022-12-17T08:50:19;55.73;;;22.13;;
6852;SDS011;3465;42.144;24.722;2022-12-17T08:53:03;54.97;;;21.47;;
6852;SDS011;3465;42.144;24.722;2022-12-17T08:55:47;53.97;;;20.73;;
6852;SDS011;3465;42.144;24.722;2022-12-17T08:58:31;57.10;;;21.33;;
6852;SDS011;3465;42.144;24.722;2022-12-17T09:01:15;47.13;;;19.03;;
6852;SDS011;3465;42.144;24.722;2022-12-17T09:03:59;49.73;;;20.27;;
6852;SDS011;3465;42.144;24.722;2022-12-17T09:06:43;49.57;;;21.13;;
6852;SDS011;3465;42.144;24.722;2022-12-17T09:09:27;57.37;;;21.17;;
6852;SDS011;3465;42.144;24.722;2022-12-17T09:12:11;56.50;;;21.27;;
6852;SDS011;3465;42.144;24.722;2022-12-17T09:14:55;61.07;;;22.43;;
6852;SDS011;3465;42.144;24.722;2022-12-17T09:17:39;59.03;;;22.90;;
6852;SDS011;3465;42.144;24.722;2022-12-17T09:20:23;60.80;;;22.23;;
6852;SDS011;3465;42.144;24.722;2022-12-17T09:23:07;64.97;;;23.63;;
6852;SDS011;3465;42.144;24.722;2022-12-17T09:25:52;60.43;;;23.30;;
6852;SDS011;3465;42.144;24.722;2022-12-17T09:28:36;60.77;;;22.17;;
6852;SDS011;3465;42.144;24.722;2022-12-17T09:31:20;58.47;;;21.30;;
6852;SDS011;3465;42.144;24.722;2022-12-17T09:34:04;53.27;;;20.83;;
6852;SDS011;3465;42.144;24.722;2022-12-17T09:36:48;52.00;;;21.60;;
6852;SDS011;3465;42.144;24.722;2022-12-17T09:39:32;46.00;;;19.30;;
6852;SDS011;3465;42.144;24.722;2022-12-17T09:42:21;46.07;;;20.30;;
6852;SDS011;3465;42.144;24.722;2022-12-17T09:45:15;42.83;;;17.83;;
6852;SDS011;3465;42.144;24.722;2022-12-17T09:50:51;39.87;;;18.70;;
6852;SDS011;3465;42.144;24.722;2022-12-17T09:56:22;41.77;;;18.43;;
6852;SDS011;3465;42.144;24.722;2022-12-17T09:59:10;39.67;;;18.87;;
6852;SDS011;3465;42.144;24.722;2022-12-17T10:02:06;46.33;;;20.87;;
6852;SDS011;3465;42.144;24.722;2022-12-17T10:04:55;45.03;;;19.57;;
6852;SDS011;3465;42.144;24.722;2022-12-17T10:07:40;41.67;;;19.37;;
6852;SDS011;3465;42.144;24.722;2022-12-17T10:10:25;39.73;;;18.63;;
6852;SDS011;3465;42.144;24.722;2022-12-17T10:13:20;41.97;;;18.57;;
6852;SDS011;3465;42.144;24.722;2022-12-17T10:16:25;38.17;;;18.40;;
6852;SDS011;3465;42.144;24.722;2022-12-17T10:19:15;33.33;;;17.37;;
6852;SDS011;3465;42.144;24.722;2022-12-17T10:22:06;37.67;;;17.97;;
6852;SDS011;3465;42.144;24.722;2022-12-17T10:24:55;35.30;;;16.90;;
6852;SDS011;3465;42.144;24.722;2022-12-17T10:27:39;32.03;;;16.00;;
6852;SDS011;3465;42.144;24.722;2022-12-17T10:30:26;30.67;;;16.43;;
6852;SDS011;3465;42.144;24.722;2022-12-17T10:33:14;32.87;;;16.37;;
6852;SDS011;3465;42.144;24.722;2022-12-17T10:36:01;36.43;;;16.97;;
6852;SDS011;3465;42.144;24.722;2022-12-17T10:38:52;45.07;;;16.67;;
6852;SDS011;3465;42.144;24.722;2022-12-17T10:41:39;36.33;;;18.27;;
6852;SDS011;3465;42.144;24.722;2022-12-17T10:44:25;36.83;;;16.80;;
6852;SDS011;3465;42.144;24.722;2022-12-17T10:47:15;36.63;;;17.33;;
6852;SDS011;3465;42.144;24.722;2022-12-17T10:50:02;34.27;;;17.33;;
6852;SDS011;3465;42.144;24.722;2022-12-17T10:52:49;36.17;;;17.10;;
6852;SDS011;3465;42.144;24.722;2022-12-17T10:55:34;57.30;;;25.30;;
6852;SDS011;3465;42.144;24.722;2022-12-17T10:58:22;46.37;;;19.80;;
6852;SDS011;3465;42.144;24.722;2022-12-17T11:01:10;37.63;;;19.10;;
6852;SDS011;3465;42.144;24.722;2022-12-17T11:04:01;40.73;;;18.87;;
6852;SDS011;3465;42.144;24.722;2022-12-17T11:06:46;41.87;;;22.23;;
6852;SDS011;3465;42.144;24.722;2022-12-17T11:09:42;33.47;;;16.30;;
6852;SDS011;3465;42.144;24.722;2022-12-17T11:12:51;35.60;;;16.13;;
6852;SDS011;3465;42.144;24.722;2022-12-17T11:15:44;33.30;;;16.87;;
6852;SDS011;3465;42.144;24.722;2022-12-17T11:21:24;36.50;;;19.27;;
6852;SDS011;3465;42.144;24.722;2022-12-17T11:24:15;47.83;;;26.57;;
6852;SDS011;3465;42.144;24.722;2022-12-17T11:27:06;49.10;;;26.87;;
6852;SDS011;3465;42.144;24.722;2022-12-17T11:29:53;30.57;;;17.43;;
6852;SDS011;3465;42.144;24.722;2022-12-17T11:36:14;32.50;;;15.33;;
6852;SDS011;3465;42.144;24.722;2022-12-17T11:39:28;33.07;;;16.40;;
6852;SDS011;3465;42.144;24.722;2022-12-17T11:42:23;36.43;;;18.10;;
6852;SDS011;3465;42.144;24.722;2022-12-17T11:48:36;34.87;;;17.73;;
6852;SDS011;3465;42.144;24.722;2022-12-17T11:51:59;32.30;;;16.13;;
6852;SDS011;3465;42.144;24.722;2022-12-17T11:55:16;42.57;;;20.37;;
6852;SDS011;3465;42.144;24.722;2022-12-17T11:58:19;46.90;;;19.67;;
6852;SDS011;3465;42.144;24.722;2022-12-17T12:01:17;37.90;;;18.87;;
6852;SDS011;3465;42.144;24.722;2022-12-17T12:10:20;35.73;;;17.77;;
6852;SDS011;3465;42.144;24.722;2022-12-17T12:13:13;38.80;;;17.83;;
6852;SDS011;3465;42.144;24.722;2022-12-17T12:16:10;43.50;;;19.27;;
6852;SDS011;3465;42.144;24.722;2022-12-17T12:19:18;43.77;;;20.53;;
6852;SDS011;3465;42.144;24.722;2022-12-17T12:25:18;41.53;;;20.13;;
6852;SDS011;3465;42.144;24.722;2022-12-17T12:34:16;47.13;;;19.03;;
6852;SDS011;3465;42.144;24.722;2022-12-17T12:37:11;42.40;;;20.00;;
6852;SDS011;3465;42.144;24.722;2022-12-17T12:40:12;40.57;;;18.47;;
6852;SDS011;3465;42.144;24.722;2022-12-17T12:43:17;44.43;;;19.03;;
6852;SDS011;3465;42.144;24.722;2022-12-17T12:46:19;36.13;;;17.30;;
6852;SDS011;3465;42.144;24.722;2022-12-17T12:52:08;38.43;;;19.87;;
6852;SDS011;3465;42.144;24.722;2022-12-17T12:54:55;32.80;;;17.17;;
6852;SDS011;3465;42.144;24.722;2022-12-17T13:00:39;40.83;;;19.17;;
6852;SDS011;3465;42.144;24.722;2022-12-17T13:03:38;42.37;;;19.53;;
6852;SDS011;3465;42.144;24.722;2022-12-17T13:11:43;33.97;;;18.07;;
6852;SDS011;3465;42.144;24.722;2022-12-17T13:19:44;38.07;;;18.60;;
6852;SDS011;3465;42.144;24.722;2022-12-17T13:25:13;31.37;;;16.43;;
6852;SDS011;3465;42.144;24.722;2022-12-17T13:27:39;38.00;;;18.20;;
6852;SDS011;3465;42.144;24.722;2022-12-17T13:32:46;35.70;;;17.93;;
6852;SDS011;3465;42.144;24.722;2022-12-17T13:43:54;36.63;;;17.53;;
6852;SDS011;3465;42.144;24.722;2022-12-17T13:46:23;34.67;;;17.67;;
6852;SDS011;3465;42.144;24.722;2022-12-17T13:49:34;33.33;;;16.77;;
6852;SDS011;3465;42.144;24.722;2022-12-17T13:51:47;34.40;;;17.10;;
6852;SDS011;3465;42.144;24.722;2022-12-17T13:54:23;33.37;;;16.87;;
6852;SDS011;3465;42.144;24.722;2022-12-17T13:56:48;35.77;;;17.60;;
6852;SDS011;3465;42.144;24.722;2022-12-17T13:59:18;43.93;;;18.60;;
6852;SDS011;3465;42.144;24.722;2022-12-17T14:01:46;39.50;;;17.97;;
6852;SDS011;3465;42.144;24.722;2022-12-17T14:04:23;36.17;;;18.47;;
6852;SDS011;3465;42.144;24.722;2022-12-17T14:06:53;45.50;;;18.93;;
6852;SDS011;3465;42.144;24.722;2022-12-17T14:09:23;50.43;;;19.43;;
6852;SDS011;3465;42.144;24.722;2022-12-17T14:11:56;60.77;;;26.97;;
6852;SDS011;3465;42.144;24.722;2022-12-17T14:14:45;60.33;;;29.27;;
6852;SDS011;3465;42.144;24.722;2022-12-17T14:17:16;37.63;;;19.10;;
6852;SDS011;3465;42.144;24.722;2022-12-17T14:19:55;45.57;;;21.13;;
6852;SDS011;3465;42.144;24.722;2022-12-17T14:22:39;38.50;;;20.23;;
6852;SDS011;3465;42.144;24.722;2022-12-17T14:25:20;46.30;;;20.70;;
6852;SDS011;3465;42.144;24.722;2022-12-17T14:27:50;43.10;;;21.67;;
6852;SDS011;3465;42.144;24.722;2022-12-17T14:30:19;46.47;;;22.07;;
6852;SDS011;3465;42.144;24.722;2022-12-17T14:32:46;48.60;;;21.57;;
6852;SDS011;3465;42.144;24.722;2022-12-17T14:35:22;50.43;;;22.60;;
6852;SDS011;3465;42.144;24.722;2022-12-17T14:37:52;48.00;;;24.27;;
6852;SDS011;3465;42.144;24.722;2022-12-17T14:40:18;50.43;;;23.50;;
6852;SDS011;3465;42.144;24.722;2022-12-17T14:42:43;90.77;;;43.23;;
6852;SDS011;3465;42.144;24.722;2022-12-17T14:47:51;45.13;;;23.03;;
6852;SDS011;3465;42.144;24.722;2022-12-17T14:50:34;58.33;;;23.90;;
6852;SDS011;3465;42.144;24.722;2022-12-17T14:53:02;55.50;;;27.23;;
6852;SDS011;3465;42.144;24.722;2022-12-17T14:58:23;50.03;;;24.43;;
6852;SDS011;3465;42.144;24.722;2022-12-17T15:03:37;56.93;;;27.43;;
6852;SDS011;3465;42.144;24.722;2022-12-17T15:06:06;59.47;;;26.83;;
6852;SDS011;3465;42.144;24.722;2022-12-17T15:08:39;63.70;;;29.87;;
6852;SDS011;3465;42.144;24.722;2022-12-17T15:11:07;79.10;;;29.73;;
6852;SDS011;3465;42.144;24.722;2022-12-17T15:13:36;57.93;;;27.70;;
6852;SDS011;3465;42.144;24.722;2022-12-17T15:16:04;63.43;;;29.10;;
6852;SDS011;3465;42.144;24.722;2022-12-17T15:18:30;59.30;;;28.73;;
6852;SDS011;3465;42.144;24.722;2022-12-17T15:20:55;57.17;;;26.93;;
6852;SDS011;3465;42.144;24.722;2022-12-17T15:23:21;60.10;;;28.50;;
6852;SDS011;3465;42.144;24.722;2022-12-17T15:25:48;61.60;;;30.57;;
6852;SDS011;3465;42.144;24.722;2022-12-17T15:28:17;61.73;;;28.13;;
6852;SDS011;3465;42.144;24.722;2022-12-17T15:30:44;64.07;;;27.97;;
6852;SDS011;3465;42.144;24.722;2022-12-17T15:33:10;55.93;;;28.43;;
6852;SDS011;3465;42.144;24.722;2022-12-17T15:35:37;54.83;;;25.40;;
6852;SDS011;3465;42.144;24.722;2022-12-17T15:38:03;56.70;;;27.03;;
6852;SDS011;3465;42.144;24.722;2022-12-17T15:40:30;61.23;;;28.30;;
6852;SDS011;3465;42.144;24.722;2022-12-17T15:42:55;63.73;;;29.20;;
6852;SDS011;3465;42.144;24.722;2022-12-17T15:45:37;56.80;;;28.53;;
6852;SDS011;3465;42.144;24.722;2022-12-17T15:48:11;63.70;;;29.33;;
6852;SDS011;3465;42.144;24.722;2022-12-17T15:50:38;68.77;;;31.47;;
6852;SDS011;3465;42.144;24.722;2022-12-17T15:53:04;70.43;;;33.03;;
6852;SDS011;3465;42.144;24.722;2022-12-17T15:55:30;60.10;;;28.23;;
6852;SDS011;3465;42.144;24.722;2022-12-17T15:57:56;64.63;;;28.97;;
6852;SDS011;3465;42.144;24.722;2022-12-17T16:00:22;67.23;;;30.80;;
6852;SDS011;3465;42.144;24.722;2022-12-17T16:02:48;64.37;;;30.13;;
6852;SDS011;3465;42.144;24.722;2022-12-17T16:05:14;73.60;;;32.07;;
6852;SDS011;3465;42.144;24.722;2022-12-17T16:07:40;64.00;;;31.43;;
6852;SDS011;3465;42.144;24.722;2022-12-17T16:10:07;66.50;;;32.17;;
6852;SDS011;3465;42.144;24.722;2022-12-17T16:12:34;71.23;;;34.60;;
6852;SDS011;3465;42.144;24.722;2022-12-17T16:15:00;74.10;;;35.20;;
6852;SDS011;3465;42.144;24.722;2022-12-17T16:17:25;73.10;;;36.27;;
6852;SDS011;3465;42.144;24.722;2022-12-17T16:19:51;68.77;;;34.90;;
6852;SDS011;3465;42.144;24.722;2022-12-17T16:22:16;80.40;;;35.50;;
6852;SDS011;3465;42.144;24.722;2022-12-17T16:24:42;75.53;;;34.33;;
6852;SDS011;3465;42.144;24.722;2022-12-17T16:27:07;72.80;;;34.53;;
6852;SDS011;3465;42.144;24.722;2022-12-17T16:29:33;77.63;;;36.80;;
6852;SDS011;3465;42.144;24.722;2022-12-17T16:31:58;89.47;;;36.63;;
6852;SDS011;3465;42.144;24.722;2022-12-17T16:34:26;85.33;;;37.83;;
6852;SDS011;3465;42.144;24.722;2022-12-17T16:36:52;81.10;;;37.70;;
6852;SDS011;3465;42.144;24.722;2022-12-17T16:39:18;73.43;;;34.93;;
6852;SDS011;3465;42.144;24.722;2022-12-17T16:41:44;98.03;;;41.80;;
6852;SDS011;3465;42.144;24.722;2022-12-17T16:44:10;88.30;;;40.20;;
6852;SDS011;3465;42.144;24.722;2022-12-17T16:46:38;81.77;;;39.10;;
6852;SDS011;3465;42.144;24.722;2022-12-17T16:49:05;80.97;;;39.30;;
6852;SDS011;3465;42.144;24.722;2022-12-17T16:51:36;92.60;;;42.23;;
6852;SDS011;3465;42.144;24.722;2022-12-17T16:54:10;89.80;;;41.77;;
6852;SDS011;3465;42.144;24.722;2022-12-17T16:56:37;87.97;;;41.60;;
6852;SDS011;3465;42.144;24.722;2022-12-17T16:59:03;91.57;;;40.83;;
6852;SDS011;3465;42.144;24.722;2022-12-17T17:01:29;78.60;;;35.50;;
6852;SDS011;3465;42.144;24.722;2022-12-17T17:03:55;83.00;;;35.53;;
6852;SDS011;3465;42.144;24.722;2022-12-17T17:06:21;75.10;;;34.17;;
6852;SDS011;3465;42.144;24.722;2022-12-17T17:08:47;75.50;;;35.17;;
6852;SDS011;3465;42.144;24.722;2022-12-17T17:13:45;91.07;;;38.83;;
6852;SDS011;3465;42.144;24.722;2022-12-17T17:16:12;90.53;;;39.63;;
6852;SDS011;3465;42.144;24.722;2022-12-17T17:18:37;90.77;;;36.87;;
6852;SDS011;3465;42.144;24.722;2022-12-17T17:21:13;87.50;;;38.77;;
6852;SDS011;3465;42.144;24.722;2022-12-17T17:23:46;95.27;;;38.10;;
6852;SDS011;3465;42.144;24.722;2022-12-17T17:26:13;93.47;;;38.37;;
6852;SDS011;3465;42.144;24.722;2022-12-17T17:28:38;93.53;;;37.40;;